Webcam Flughafen St.Gallen-Altenrhein

Live-Bilder und Zeitraffer LSZR / ACH.

 

Live aus Altenrhein
LIVE
LSZR 291550Z VRB02KT 9999 BKN045 13/08 Q1020 NOSIG RMK L
Zeitraffer heute
2020-09-29 00:14:25
LSZR 282150Z AUTO 25006KT 200V290 9999 -RA FEW040 SCT045 BKN050 12/08 Q1016